Time;durP1;ratioP1;P1;durP2;ratioP2;P2;SDS_P1;SDS_P2;PMS_P1;PMS_P2;Temp;Humidity;BMP_temperature;BMP_pressure;BME280_temperature;BME280_humidity;BME280_pressure;Samples;Min_cycle;Max_cycle;Signal;HPM_P1;HPM_P2
2023/09/05 00:00:04;;;;;;;2.35;1.58;;;;;;;19.50;96.55;96862.44;5036491;28;20230;-68
2023/09/05 00:02:30;;;;;;;8.60;1.13;;;;;;;19.38;98.91;96861.50;5035400;28;20209;-68
2023/09/05 00:04:57;;;;;;;3.13;1.40;;;;;;;19.60;96.68;96864.41;5036208;28;20212;-68
2023/09/05 00:07:24;;;;;;;1.48;1.17;;;;;;;19.65;97.38;96858.41;5035303;28;20604;-68
2023/09/05 00:09:50;;;;;;;1.60;1.10;;;;;;;19.56;97.52;96856.22;5036266;28;20205;-68
2023/09/05 00:12:18;;;;;;;3.83;1.20;;;;;;;19.59;98.07;96846.72;5035479;28;20197;-68
2023/09/05 00:14:45;;;;;;;2.35;1.30;;;;;;;19.30;99.39;96846.53;5035460;28;20746;-67
2023/09/05 00:17:11;;;;;;;3.05;1.13;;;;;;;19.41;97.44;96853.03;5035850;28;20726;-68
2023/09/05 00:19:37;;;;;;;2.50;1.50;;;;;;;19.21;97.88;96847.03;5035179;28;21015;-69
2023/09/05 00:22:04;;;;;;;2.40;1.20;;;;;;;19.25;97.51;96850.91;5035317;28;21169;-68
2023/09/05 00:24:32;;;;;;;2.75;1.20;;;;;;;19.54;98.04;96842.25;5036121;28;20213;-67
2023/09/05 00:27:00;;;;;;;1.80;1.17;;;;;;;19.48;95.41;96846.63;5036049;28;20243;-68
2023/09/05 00:29:30;;;;;;;2.45;1.10;;;;;;;19.83;95.14;96837.06;5034858;28;20210;-67
2023/09/05 00:31:59;;;;;;;3.00;1.15;;;;;;;19.80;95.72;96846.34;5036311;28;20201;-67
2023/09/05 00:34:27;;;;;;;2.10;0.90;;;;;;;19.54;97.63;96839.56;5036550;28;20208;-68
2023/09/05 00:36:54;;;;;;;3.25;1.27;;;;;;;19.40;97.71;96840.72;5039166;28;20224;-67
2023/09/05 00:39:20;;;;;;;2.67;1.00;;;;;;;19.49;97.48;96842.06;5039229;28;20225;-67
2023/09/05 00:41:47;;;;;;;1.25;0.90;;;;;;;19.77;95.91;96838.75;5037942;28;20687;-67
2023/09/05 00:44:15;;;;;;;3.25;1.55;;;;;;;19.38;97.01;96840.13;5038846;28;20896;-67
2023/09/05 00:46:45;;;;;;;2.08;1.20;;;;;;;19.64;97.58;96824.72;5039885;28;20294;-68
2023/09/05 00:49:15;;;;;;;2.30;1.58;;;;;;;19.41;98.70;96831.66;5038793;28;20213;-67
2023/09/05 00:51:42;;;;;;;2.05;1.00;;;;;;;19.17;99.70;96829.75;5039078;28;21162;-67
2023/09/05 00:54:10;;;;;;;1.92;1.20;;;;;;;18.96;100.00;96832.75;5039110;28;21208;-67
2023/09/05 00:56:37;;;;;;;2.42;0.98;;;;;;;19.19;100.00;96833.06;5039378;28;20209;-67
2023/09/05 00:59:05;;;;;;;2.72;1.15;;;;;;;19.27;100.00;96836.28;5037856;28;20233;-68
2023/09/05 01:01:31;;;;;;;0.90;0.85;;;;;;;19.18;100.00;96831.41;5039159;28;20213;-67
2023/09/05 01:03:59;;;;;;;1.58;1.20;;;;;;;19.37;100.00;96838.47;5039359;28;20198;-67
2023/09/05 01:06:37;;;;;;;2.40;1.10;;;;;;;19.61;99.71;96831.31;5038780;28;20205;-67
2023/09/05 01:09:24;;;;;;;3.17;1.40;;;;;;;19.61;98.98;96835.81;5037696;28;20296;-68
2023/09/05 01:11:51;;;;;;;1.65;1.13;;;;;;;19.20;100.00;96834.69;5039079;28;20204;-67
2023/09/05 01:14:18;;;;;;;2.97;1.10;;;;;;;18.99;100.00;96832.31;5038487;28;20209;-67
2023/09/05 01:16:45;;;;;;;1.17;0.88;;;;;;;18.84;100.00;96829.13;5039508;28;20216;-68
2023/09/05 01:19:15;;;;;;;2.42;1.23;;;;;;;19.22;100.00;96821.91;5037915;28;20221;-68
2023/09/05 01:21:51;;;;;;;2.72;1.48;;;;;;;19.24;100.00;96825.22;5038798;28;20228;-67
2023/09/05 01:24:21;;;;;;;1.67;1.10;;;;;;;19.11;100.00;96825.31;5037797;28;20675;-67
2023/09/05 01:26:49;;;;;;;1.83;1.13;;;;;;;19.09;100.00;96820.19;5038661;28;21418;-67
2023/09/05 01:29:18;;;;;;;2.47;1.08;;;;;;;18.97;100.00;96829.06;5037728;28;20201;-68
2023/09/05 01:31:46;;;;;;;1.20;0.90;;;;;;;19.01;100.00;96827.59;5038153;28;20330;-67
2023/09/05 01:34:12;;;;;;;2.80;1.23;;;;;;;18.63;100.00;96824.06;5038408;28;20286;-67
2023/09/05 01:36:39;;;;;;;3.08;1.25;;;;;;;18.62;100.00;96829.63;5038297;28;20201;-67
2023/09/05 01:39:05;;;;;;;2.78;1.40;;;;;;;18.37;100.00;96826.84;5037592;28;20233;-68
2023/09/05 01:41:33;;;;;;;2.03;1.10;;;;;;;18.58;100.00;96823.09;5037919;28;20205;-68
2023/09/05 01:44:00;;;;;;;2.40;1.27;;;;;;;18.49;100.00;96819.81;5038613;28;20572;-68
2023/09/05 01:46:26;;;;;;;3.30;1.38;;;;;;;18.35;100.00;96820.09;5037776;28;20204;-68
2023/09/05 01:48:53;;;;;;;2.67;1.33;;;;;;;18.25;100.00;96819.72;5037789;28;20224;-68
2023/09/05 01:51:19;;;;;;;1.20;0.90;;;;;;;18.45;100.00;96823.94;5038312;28;20208;-68
2023/09/05 01:53:46;;;;;;;3.25;1.40;;;;;;;18.34;100.00;96821.94;5038339;28;20211;-68
2023/09/05 01:56:12;;;;;;;1.83;1.08;;;;;;;18.27;100.00;96808.84;5036981;28;21883;-68
2023/09/05 01:58:40;;;;;;;2.10;1.15;;;;;;;18.55;100.00;96812.84;5039141;28;20225;-68
2023/09/05 02:01:06;;;;;;;2.80;1.30;;;;;;;17.77;100.00;96809.56;5037512;28;20703;-68
2023/09/05 02:03:33;;;;;;;1.33;1.08;;;;;;;17.84;100.00;96811.16;5037985;28;20201;-68
2023/09/05 02:05:59;;;;;;;2.97;1.40;;;;;;;18.01;100.00;96811.53;5037697;28;20197;-68
2023/09/05 02:08:26;;;;;;;2.88;1.40;;;;;;;18.03;100.00;96812.16;5037475;28;20739;-68
2023/09/05 02:10:53;;;;;;;3.80;1.55;;;;;;;18.03;100.00;96812.97;5037003;28;20198;-68
2023/09/05 02:13:19;;;;;;;2.45;1.40;;;;;;;17.91;100.00;96813.84;5037534;28;20725;-68
2023/09/05 02:15:47;;;;;;;3.85;1.98;;;;;;;18.36;100.00;96805.72;5035690;28;20577;-68
2023/09/05 02:18:13;;;;;;;2.72;1.85;;;;;;;18.17;100.00;96805.78;5035710;28;20229;-68
2023/09/05 02:20:40;;;;;;;1.88;1.20;;;;;;;18.17;100.00;96809.28;5037647;28;20225;-68
2023/09/05 02:23:07;;;;;;;2.47;1.27;;;;;;;17.74;100.00;96812.63;5037598;28;20205;-67
2023/09/05 02:25:33;;;;;;;4.35;1.30;;;;;;;17.92;100.00;96804.78;5037410;28;20201;-68
2023/09/05 02:28:00;;;;;;;1.73;1.50;;;;;;;18.05;100.00;96810.94;5036232;28;20733;-68
2023/09/05 02:30:27;;;;;;;2.25;1.40;;;;;;;17.97;100.00;96818.31;5037679;28;20667;-68
2023/09/05 02:32:56;;;;;;;2.88;1.38;;;;;;;18.19;100.00;96811.72;5036790;28;21153;-68
2023/09/05 02:35:23;;;;;;;2.97;1.52;;;;;;;18.14;100.00;96817.69;5036635;28;20201;-68
2023/09/05 02:37:50;;;;;;;2.53;1.38;;;;;;;18.08;100.00;96818.50;5036705;28;20220;-67
2023/09/05 02:40:16;;;;;;;1.95;1.20;;;;;;;18.23;100.00;96816.44;5037101;28;20233;-68
2023/09/05 02:42:43;;;;;;;2.15;1.23;;;;;;;18.29;100.00;96820.13;5036533;28;20201;-68
2023/09/05 02:45:11;;;;;;;3.90;1.80;;;;;;;18.48;100.00;96812.03;5037348;28;20212;-68
2023/09/05 02:47:37;;;;;;;2.97;1.48;;;;;;;18.22;100.00;96816.66;5036286;28;20267;-68
2023/09/05 02:50:06;;;;;;;1.98;1.20;;;;;;;18.59;100.00;96814.06;5037157;28;20197;-67
2023/09/05 02:52:33;;;;;;;1.75;1.25;;;;;;;18.14;100.00;96814.16;5036939;28;20227;-68
2023/09/05 02:55:00;;;;;;;3.10;1.48;;;;;;;18.31;100.00;96815.41;5037563;28;20208;-67
2023/09/05 02:57:27;;;;;;;2.42;1.45;;;;;;;18.33;100.00;96816.00;5034869;28;20674;-68
2023/09/05 02:59:54;;;;;;;6.30;2.17;;;;;;;18.08;100.00;96820.34;5037331;28;20221;-67
2023/09/05 03:02:20;;;;;;;3.78;1.83;;;;;;;18.26;100.00;96823.22;5037009;28;20210;-68
2023/09/05 03:04:51;;;;;;;3.47;1.73;;;;;;;18.45;100.00;96815.13;5036564;28;20219;-68
2023/09/05 03:07:19;;;;;;;3.38;1.58;;;;;;;18.49;100.00;96819.81;5035805;28;20225;-68
2023/09/05 03:09:45;;;;;;;10.80;1.83;;;;;;;18.31;100.00;96818.06;5037924;28;20209;-68
2023/09/05 03:12:12;;;;;;;3.08;1.63;;;;;;;18.27;100.00;96814.19;5036321;28;20209;-68
2023/09/05 03:14:38;;;;;;;2.80;1.70;;;;;;;18.10;100.00;96807.63;5036346;28;20213;-67
2023/09/05 03:17:07;;;;;;;2.30;1.27;;;;;;;18.08;100.00;96810.50;5036297;28;20221;-68
2023/09/05 03:19:33;;;;;;;4.97;2.13;;;;;;;18.01;100.00;96808.88;5036159;28;20198;-68
2023/09/05 03:22:00;;;;;;;3.03;1.48;;;;;;;18.07;100.00;96802.72;5036843;28;20205;-68
2023/09/05 03:24:28;;;;;;;3.25;1.75;;;;;;;18.27;100.00;96803.50;5035676;28;20202;-68
2023/09/05 03:26:55;;;;;;;3.63;1.65;;;;;;;18.02;100.00;96799.84;5036380;28;20695;-68
2023/09/05 03:29:21;;;;;;;3.70;1.92;;;;;;;18.12;100.00;96811.72;5035882;28;20205;-68
2023/09/05 03:31:48;;;;;;;3.50;1.85;;;;;;;17.92;100.00;96810.97;5036426;28;20207;-68
2023/09/05 03:34:14;;;;;;;3.80;1.73;;;;;;;18.09;100.00;96812.16;5035834;28;20201;-68
2023/09/05 03:36:41;;;;;;;2.58;1.30;;;;;;;18.03;100.00;96812.16;5036408;28;20197;-68
2023/09/05 03:39:07;;;;;;;3.13;1.88;;;;;;;18.01;100.00;96814.22;5035743;28;20235;-68
2023/09/05 03:41:36;;;;;;;2.30;1.38;;;;;;;18.37;100.00;96818.03;5035893;28;20218;-68
2023/09/05 03:44:02;;;;;;;5.20;1.77;;;;;;;18.00;100.00;96823.25;5036258;28;20193;-68
2023/09/05 03:46:29;;;;;;;3.35;1.70;;;;;;;18.13;100.00;96812.56;5036229;28;20197;-68
2023/09/05 03:48:57;;;;;;;3.45;1.83;;;;;;;17.78;100.00;96813.84;5035895;28;20246;-68
2023/09/05 03:51:23;;;;;;;5.47;1.90;;;;;;;18.19;100.00;96814.41;5036718;28;20208;-68
2023/09/05 03:53:51;;;;;;;3.70;2.00;;;;;;;18.17;100.00;96819.94;5036402;28;20201;-68
2023/09/05 03:56:18;;;;;;;4.40;2.30;;;;;;;17.65;100.00;96813.84;5035567;28;20920;-68
2023/09/05 03:58:45;;;;;;;3.63;1.88;;;;;;;17.48;100.00;96812.66;5035965;28;20224;-68
2023/09/05 04:01:15;;;;;;;5.20;2.40;;;;;;;17.85;100.00;96804.81;5035946;28;20225;-68
2023/09/05 04:03:42;;;;;;;3.42;1.67;;;;;;;17.38;100.00;96796.25;5035969;28;20201;-68
2023/09/05 04:06:08;;;;;;;8.40;2.33;;;;;;;17.36;100.00;96789.47;5036189;28;20208;-68
2023/09/05 04:08:35;;;;;;;4.03;2.08;;;;;;;17.30;100.00;96799.13;5035896;28;20217;-68
2023/09/05 04:11:02;;;;;;;2.80;1.58;;;;;;;17.48;100.00;96798.50;5039011;28;20193;-68
2023/09/05 04:13:29;;;;;;;5.03;2.38;;;;;;;17.63;100.00;96794.59;5039595;28;20973;-68
2023/09/05 04:16:02;;;;;;;4.57;1.85;;;;;;;17.81;100.00;96797.44;5040528;28;20296;-68
2023/09/05 04:18:29;;;;;;;2.63;1.65;;;;;;;17.53;100.00;96796.84;5039212;28;20221;-68
2023/09/05 04:20:58;;;;;;;5.63;2.00;;;;;;;17.94;100.00;96797.41;5039556;28;20228;-68
2023/09/05 04:23:25;;;;;;;7.28;2.22;;;;;;;17.57;100.00;96811.41;5040452;28;20197;-68
2023/09/05 04:25:57;;;;;;;3.38;2.03;;;;;;;17.76;100.00;96808.72;5039630;28;20204;-68
2023/09/05 04:28:24;;;;;;;2.92;1.75;;;;;;;17.67;100.00;96814.47;5039076;28;20342;-68
2023/09/05 04:30:51;;;;;;;4.90;2.00;;;;;;;17.64;100.00;96806.88;5039206;28;20739;-68
2023/09/05 04:33:19;;;;;;;3.78;1.70;;;;;;;17.79;100.00;96807.47;5039389;28;20271;-66
2023/09/05 04:35:45;;;;;;;4.00;1.92;;;;;;;18.00;100.00;96796.59;5039378;28;20201;-66
2023/09/05 04:38:12;;;;;;;3.70;1.95;;;;;;;17.78;100.00;96804.00;5038658;28;20243;-67
2023/09/05 04:40:38;;;;;;;3.63;2.08;;;;;;;17.26;100.00;96802.38;5037767;28;20221;-66
2023/09/05 04:43:05;;;;;;;3.40;1.70;;;;;;;17.32;100.00;96802.41;5039749;28;20201;-67
2023/09/05 04:45:32;;;;;;;3.65;1.63;;;;;;;17.38;100.00;96806.09;5038991;28;20201;-66
2023/09/05 04:47:58;;;;;;;4.13;1.95;;;;;;;17.49;100.00;96816.94;5038670;28;20217;-67
2023/09/05 04:50:26;;;;;;;4.45;2.25;;;;;;;17.72;100.00;96814.69;5039447;28;20210;-66
2023/09/05 04:52:53;;;;;;;4.70;2.08;;;;;;;17.59;100.00;96817.38;5039073;28;20581;-66
2023/09/05 04:55:19;;;;;;;3.60;1.77;;;;;;;17.43;100.00;96820.44;5039020;28;20590;-66
2023/09/05 04:57:47;;;;;;;3.15;1.55;;;;;;;17.60;100.00;96816.31;5038144;28;20229;-66
2023/09/05 05:00:18;;;;;;;3.45;1.73;;;;;;;17.74;100.00;96825.94;5038859;28;20312;-66
2023/09/05 05:02:45;;;;;;;4.07;1.73;;;;;;;17.74;100.00;96828.59;5038972;28;20675;-66
2023/09/05 05:05:12;;;;;;;4.07;2.05;;;;;;;17.83;100.00;96824.69;5039406;28;20209;-67
2023/09/05 05:07:40;;;;;;;3.05;1.75;;;;;;;18.13;100.00;96828.56;5038528;28;20232;-67
2023/09/05 05:10:08;;;;;;;3.58;2.10;;;;;;;18.15;100.00;96826.47;5039126;28;20209;-66
2023/09/05 05:12:35;;;;;;;2.25;1.70;;;;;;;17.96;100.00;96822.00;5038143;28;20201;-66
2023/09/05 05:15:01;;;;;;;2.03;1.23;;;;;;;18.33;100.00;96826.66;5038582;28;20212;-67
2023/09/05 05:17:28;;;;;;;3.60;1.85;;;;;;;18.55;100.00;96824.31;5038192;28;20226;-67
2023/09/05 05:19:56;;;;;;;3.33;2.05;;;;;;;18.80;100.00;96825.25;5038828;28;20224;-66
2023/09/05 05:22:22;;;;;;;4.85;2.22;;;;;;;18.97;100.00;96840.53;5038352;28;20212;-67
2023/09/05 05:24:51;;;;;;;3.03;1.50;;;;;;;19.16;100.00;96842.31;5038775;28;20217;-68
2023/09/05 05:27:17;;;;;;;2.97;1.38;;;;;;;19.11;100.00;96849.34;5038064;28;20260;-68
2023/09/05 05:29:44;;;;;;;4.57;1.88;;;;;;;19.25;100.00;96840.22;5039692;28;20197;-67
2023/09/05 05:32:11;;;;;;;3.38;1.63;;;;;;;19.44;100.00;96841.94;5037638;28;20197;-67
2023/09/05 05:34:37;;;;;;;4.85;2.05;;;;;;;19.31;100.00;96842.84;5038952;28;20675;-67
2023/09/05 05:37:04;;;;;;;3.05;1.65;;;;;;;19.08;100.00;96847.09;5038900;28;20738;-67
2023/09/05 05:39:31;;;;;;;3.75;2.00;;;;;;;18.80;100.00;96853.78;5038505;28;20201;-67
2023/09/05 05:41:59;;;;;;;3.63;1.73;;;;;;;19.16;100.00;96842.31;5037673;28;20229;-66
2023/09/05 05:44:25;;;;;;;2.45;1.85;;;;;;;18.77;100.00;96846.22;5039629;28;20226;-66
2023/09/05 05:46:57;;;;;;;3.65;1.75;;;;;;;18.91;100.00;96839.78;5037818;28;20247;-67
2023/09/05 05:49:26;;;;;;;2.83;1.42;;;;;;;19.03;100.00;96844.22;5037423;28;20991;-66
2023/09/05 05:51:53;;;;;;;2.80;1.67;;;;;;;19.09;100.00;96848.72;5038661;28;20197;-66
2023/09/05 05:54:19;;;;;;;4.05;2.03;;;;;;;19.04;100.00;96849.34;5038089;28;20205;-66
2023/09/05 05:56:46;;;;;;;3.92;1.75;;;;;;;19.47;100.00;96846.84;5037437;28;20209;-66
2023/09/05 05:59:14;;;;;;;2.05;1.48;;;;;;;19.32;100.00;96846.31;5037721;28;20201;-66
2023/09/05 06:01:40;;;;;;;4.00;2.00;;;;;;;19.11;100.00;96854.69;5038878;28;20225;-67
2023/09/05 06:04:07;;;;;;;2.58;1.60;;;;;;;18.99;100.00;96848.34;5037567;28;20695;-67
2023/09/05 06:06:33;;;;;;;2.65;1.75;;;;;;;19.14;100.00;96848.91;5038258;28;20212;-67
2023/09/05 06:09:00;;;;;;;3.88;1.70;;;;;;;19.25;100.00;96843.69;5037679;28;20569;-67
2023/09/05 06:11:27;;;;;;;4.25;1.50;;;;;;;19.39;100.00;96850.59;5037175;28;20201;-66
2023/09/05 06:13:53;;;;;;;5.30;1.90;;;;;;;19.43;100.00;96851.00;5037707;28;20205;-66
2023/09/05 06:16:22;;;;;;;3.28;1.45;;;;;;;19.77;100.00;96849.47;5037485;28;20209;-67
2023/09/05 06:18:49;;;;;;;3.38;1.58;;;;;;;19.31;100.00;96855.38;5036634;28;20456;-66
2023/09/05 06:21:15;;;;;;;3.17;2.10;;;;;;;19.56;100.00;96861.56;5036447;28;20227;-66
2023/09/05 06:23:42;;;;;;;3.28;1.60;;;;;;;19.69;100.00;96854.25;5036557;28;20211;-66
2023/09/05 06:26:08;;;;;;;3.70;2.03;;;;;;;19.61;100.00;96850.03;5036621;28;20201;-66
2023/09/05 06:28:35;;;;;;;2.65;1.67;;;;;;;19.82;100.00;96851.50;5034728;28;20221;-67
2023/09/05 06:31:02;;;;;;;3.00;1.52;;;;;;;19.70;100.00;96846.03;5035499;28;20721;-67
2023/09/05 06:33:30;;;;;;;2.10;1.45;;;;;;;19.97;100.00;96844.81;5035043;28;20197;-67
2023/09/05 06:35:56;;;;;;;3.20;1.77;;;;;;;20.01;100.00;96843.31;5034975;28;20205;-66
2023/09/05 06:38:23;;;;;;;3.35;1.75;;;;;;;19.86;100.00;96840.13;5035863;28;20225;-67
2023/09/05 06:40:50;;;;;;;2.78;1.55;;;;;;;20.08;100.00;96840.56;5036787;28;20225;-66
2023/09/05 06:43:16;;;;;;;4.45;1.70;;;;;;;20.34;100.00;96841.94;5035546;28;20205;-67
2023/09/05 06:45:43;;;;;;;2.10;1.50;;;;;;;20.90;100.00;96837.97;5036355;28;20312;-66
2023/09/05 06:48:09;;;;;;;2.80;1.27;;;;;;;21.12;100.00;96841.81;5035239;28;21177;-67
2023/09/05 06:50:37;;;;;;;2.28;1.35;;;;;;;21.59;100.00;96839.06;5036830;28;20209;-67
2023/09/05 06:53:04;;;;;;;2.15;1.30;;;;;;;21.47;99.38;96851.59;5036440;28;20214;-66
2023/09/05 06:55:34;;;;;;;4.18;1.40;;;;;;;21.42;98.00;96853.31;5037164;28;20211;-67
2023/09/05 06:58:01;;;;;;;3.92;1.30;;;;;;;21.49;98.35;96837.94;5036585;28;20235;-67
2023/09/05 07:00:27;;;;;;;2.00;1.40;;;;;;;21.67;98.53;96836.03;5036561;28;20212;-67
2023/09/05 07:02:54;;;;;;;2.72;1.80;;;;;;;21.54;99.79;96824.72;5036898;28;20197;-66
2023/09/05 07:05:21;;;;;;;2.50;1.50;;;;;;;21.69;98.23;96836.63;5036402;28;20208;-66
2023/09/05 07:07:48;;;;;;;1.85;1.23;;;;;;;21.94;98.01;96831.84;5036612;28;20221;-66
2023/09/05 07:10:15;;;;;;;4.90;1.40;;;;;;;22.05;96.80;96839.09;5036549;28;20247;-67
2023/09/05 07:12:42;;;;;;;4.15;1.60;;;;;;;21.37;100.00;96844.31;5036228;28;20197;-66
2023/09/05 07:15:09;;;;;;;3.03;1.38;;;;;;;21.64;100.00;96843.75;5036558;28;20673;-67
2023/09/05 07:17:35;;;;;;;2.30;1.30;;;;;;;21.81;97.36;96847.38;5035913;28;20221;-67
2023/09/05 07:20:02;;;;;;;2.50;1.48;;;;;;;21.87;97.35;96843.75;5035689;28;20197;-66
2023/09/05 07:22:28;;;;;;;1.63;1.15;;;;;;;21.11;98.59;96844.72;5035860;28;20228;-67
2023/09/05 07:24:56;;;;;;;1.98;1.30;;;;;;;22.16;92.39;96835.56;5035685;28;20201;-67
2023/09/05 07:27:23;;;;;;;2.03;1.40;;;;;;;21.67;97.13;96836.03;5035404;28;20251;-67
2023/09/05 07:29:49;;;;;;;1.65;1.20;;;;;;;21.66;97.18;96833.59;5036527;28;20197;-67
2023/09/05 07:32:16;;;;;;;1.98;1.10;;;;;;;21.72;96.23;96838.03;5035758;28;20201;-67
2023/09/05 07:34:43;;;;;;;3.90;1.40;;;;;;;21.80;96.27;96845.72;5035388;28;20233;-66
2023/09/05 07:37:09;;;;;;;1.95;1.50;;;;;;;21.67;93.91;96840.59;5036262;28;20231;-67
2023/09/05 07:39:36;;;;;;;2.17;1.20;;;;;;;21.57;95.55;96851.88;5035257;28;20201;-66
2023/09/05 07:42:05;;;;;;;2.42;1.48;;;;;;;21.76;94.23;96849.94;5035074;28;20221;-67
2023/09/05 07:44:31;;;;;;;2.17;1.30;;;;;;;21.71;97.57;96847.13;5035891;28;20305;-66
2023/09/05 07:46:58;;;;;;;3.53;1.38;;;;;;;21.85;94.27;96843.19;5034089;28;20225;-67
2023/09/05 07:49:24;;;;;;;2.50;1.30;;;;;;;22.02;97.85;96846.78;5034816;28;20972;-67
2023/09/05 07:51:51;;;;;;;4.13;1.40;;;;;;;22.16;91.05;96851.69;5035546;28;20200;-67
2023/09/05 07:54:19;;;;;;;1.65;0.98;;;;;;;21.86;93.29;96844.81;5035337;28;20197;-67
2023/09/05 07:56:45;;;;;;;3.08;1.17;;;;;;;22.04;93.59;96848.19;5034811;28;20211;-67
2023/09/05 07:59:13;;;;;;;2.38;1.42;;;;;;;22.40;92.58;96843.44;5035405;28;20205;-67
2023/09/05 08:01:40;;;;;;;2.42;1.05;;;;;;;22.14;91.04;96838.50;5035397;28;20224;-67
2023/09/05 08:04:06;;;;;;;2.28;1.42;;;;;;;21.98;90.93;96838.38;5034632;28;20232;-67
2023/09/05 08:06:33;;;;;;;1.33;0.82;;;;;;;22.25;90.96;96834.16;5034595;28;20216;-67
2023/09/05 08:08:59;;;;;;;2.20;1.08;;;;;;;22.32;89.69;96835.72;5035267;28;21322;-67
2023/09/05 08:11:26;;;;;;;1.38;0.93;;;;;;;22.59;88.28;96831.47;5032672;28;20453;-67
2023/09/05 08:13:53;;;;;;;1.85;1.02;;;;;;;22.61;88.27;96824.00;5034812;28;20209;-67
2023/09/05 08:16:21;;;;;;;3.20;1.50;;;;;;;22.71;87.41;96829.59;5034794;28;20448;-67
2023/09/05 08:18:47;;;;;;;2.33;1.10;;;;;;;22.81;84.66;96829.78;5034005;28;20221;-67
2023/09/05 08:21:14;;;;;;;2.38;1.10;;;;;;;22.43;88.89;96834.06;5034513;28;20209;-67
2023/09/05 08:23:40;;;;;;;1.50;1.00;;;;;;;23.01;83.95;96833.72;5034424;28;20208;-67
2023/09/05 08:26:10;;;;;;;1.33;1.00;;;;;;;22.51;86.09;96833.72;5034627;28;20219;-67
2023/09/05 08:28:42;;;;;;;2.47;1.20;;;;;;;22.61;85.37;96829.38;5034045;28;20914;-67
2023/09/05 08:31:09;;;;;;;1.73;1.20;;;;;;;22.73;85.71;96838.22;5035509;28;20585;-67
2023/09/05 08:33:37;;;;;;;2.00;1.10;;;;;;;23.02;85.81;96834.53;5035157;28;20209;-67
2023/09/05 08:36:05;;;;;;;2.30;0.90;;;;;;;23.24;82.50;96830.13;5035305;28;20194;-67
2023/09/05 08:38:31;;;;;;;3.20;1.25;;;;;;;22.75;82.31;96836.94;5035044;28;20229;-67
2023/09/05 08:41:00;;;;;;;1.67;1.00;;;;;;;23.49;81.81;96834.09;5035504;28;20197;-67
2023/09/05 08:43:27;;;;;;;1.33;0.98;;;;;;;23.34;84.79;96840.03;5034654;28;20207;-67
2023/09/05 08:45:54;;;;;;;2.80;1.42;;;;;;;23.38;78.69;96834.94;5032410;28;20203;-67
2023/09/05 08:48:21;;;;;;;1.58;0.90;;;;;;;23.48;79.07;96835.94;5031771;28;21143;-67
2023/09/05 08:50:49;;;;;;;1.55;1.08;;;;;;;23.59;80.81;96836.97;5034283;28;20471;-67
2023/09/05 08:53:19;;;;;;;1.70;1.27;;;;;;;23.80;79.56;96837.06;5033399;28;20663;-67
2023/09/05 08:55:46;;;;;;;0.90;0.85;;;;;;;24.27;76.82;96833.75;5035926;28;20202;-67
2023/09/05 08:58:15;;;;;;;1.48;0.93;;;;;;;24.48;78.18;96834.91;5038003;28;20239;-67
2023/09/05 09:00:44;;;;;;;1.85;1.00;;;;;;;24.19;78.52;96831.50;5037837;28;20207;-68
2023/09/05 09:03:10;;;;;;;2.47;1.10;;;;;;;23.90;76.59;96831.84;5037986;28;20228;-67
2023/09/05 09:05:37;;;;;;;2.17;1.25;;;;;;;23.97;76.24;96835.22;5039211;28;20216;-67
2023/09/05 09:08:07;;;;;;;1.65;1.08;;;;;;;24.37;75.74;96833.13;5037691;28;20232;-67
2023/09/05 09:10:33;;;;;;;0.95;0.88;;;;;;;24.01;76.63;96829.06;5038580;28;20224;-67
2023/09/05 09:13:15;;;;;;;2.35;1.20;;;;;;;24.58;74.34;96828.59;5037792;28;20208;-67
2023/09/05 09:15:43;;;;;;;2.28;1.30;;;;;;;24.67;76.13;96829.00;5037992;28;20225;-67
2023/09/05 09:18:12;;;;;;;1.58;0.88;;;;;;;25.09;77.08;96833.56;5037282;28;20229;-67
2023/09/05 09:20:42;;;;;;;0.88;0.80;;;;;;;25.16;74.32;96828.78;5038521;28;20211;-67
2023/09/05 09:23:10;;;;;;;1.92;1.05;;;;;;;25.01;75.28;96827.78;5036639;28;20312;-68
2023/09/05 09:25:47;;;;;;;1.75;0.60;;;;;;;25.73;74.67;96816.44;5037345;28;20207;-67
2023/09/05 09:28:22;;;;;;;2.85;0.80;;;;;;;25.29;70.96;96815.72;5037027;28;20615;-67
2023/09/05 09:30:55;;;;;;;1.05;0.95;;;;;;;25.17;72.61;96814.25;5037796;28;20213;-67
2023/09/05 09:33:23;;;;;;;1.33;0.60;;;;;;;24.83;73.00;96817.31;5037532;28;20209;-67
2023/09/05 09:36:02;;;;;;;1.60;0.93;;;;;;;25.28;73.57;96814.09;5038245;28;20205;-67
2023/09/05 09:38:30;;;;;;;1.60;0.70;;;;;;;25.07;75.75;96808.72;5036785;28;20601;-67
2023/09/05 09:41:00;;;;;;;1.40;0.70;;;;;;;25.06;79.12;96801.69;5037287;28;20198;-67
2023/09/05 09:43:27;;;;;;;0.75;0.70;;;;;;;24.98;73.08;96802.13;5037471;28;20229;-67
2023/09/05 09:45:54;;;;;;;1.52;0.90;;;;;;;25.10;72.99;96808.25;5037704;28;20211;-67
2023/09/05 09:48:22;;;;;;;1.20;0.70;;;;;;;25.31;71.95;96799.28;5037513;28;20863;-67
2023/09/05 09:50:49;;;;;;;3.15;0.88;;;;;;;25.40;71.16;96797.75;5037502;28;20212;-67
2023/09/05 09:53:19;;;;;;;1.50;0.88;;;;;;;26.03;69.69;96788.59;5038534;28;20209;-67
2023/09/05 09:55:52;;;;;;;5.03;1.10;;;;;;;26.13;72.46;96785.13;5038074;28;20205;-67
2023/09/05 09:58:22;;;;;;;2.20;1.20;;;;;;;26.43;68.61;96783.47;5037592;28;20225;-67
2023/09/05 10:00:51;;;;;;;3.50;1.13;;;;;;;26.13;70.00;96780.56;5037614;28;21267;-67
2023/09/05 10:03:19;;;;;;;0.90;0.63;;;;;;;26.13;67.05;96777.03;5038384;28;20221;-67
2023/09/05 10:05:47;;;;;;;1.10;0.80;;;;;;;26.20;68.48;96775.72;5037308;28;20215;-67
2023/09/05 10:08:13;;;;;;;2.67;0.93;;;;;;;26.09;68.85;96771.31;5037218;28;20225;-67
2023/09/05 10:10:41;;;;;;;1.30;0.95;;;;;;;26.35;68.09;96775.84;5036980;28;20213;-67
2023/09/05 10:13:10;;;;;;;1.23;0.93;;;;;;;27.24;65.61;96776.22;5037591;28;20197;-67
2023/09/05 10:15:37;;;;;;;3.00;1.10;;;;;;;26.57;64.53;96774.59;5037146;28;20205;-67
2023/09/05 10:18:07;;;;;;;1.08;0.90;;;;;;;26.83;65.14;96772.81;5037752;28;20259;-67
2023/09/05 10:20:35;;;;;;;2.28;1.08;;;;;;;27.17;67.25;96764.03;5037596;28;20201;-67
2023/09/05 10:23:05;;;;;;;1.00;0.73;;;;;;;27.11;63.34;96768.63;5037780;28;20221;-67
2023/09/05 10:25:33;;;;;;;2.42;1.35;;;;;;;27.23;65.95;96766.47;5037655;28;20588;-68
2023/09/05 10:27:59;;;;;;;2.15;1.25;;;;;;;27.41;64.78;96759.72;5036462;28;20788;-68
2023/09/05 10:30:28;;;;;;;7.65;1.25;;;;;;;27.62;64.61;96759.47;5037083;28;20578;-67
2023/09/05 10:32:55;;;;;;;0.98;0.60;;;;;;;27.23;63.37;96755.63;5038336;28;20207;-67
2023/09/05 10:35:22;;;;;;;1.10;0.77;;;;;;;27.06;63.49;96758.84;5036968;28;20216;-67
2023/09/05 10:37:56;;;;;;;1.48;1.02;;;;;;;27.33;63.92;96739.41;5035903;28;20217;-68
2023/09/05 10:40:34;;;;;;;1.58;1.13;;;;;;;27.76;63.27;96741.59;5037328;28;20215;-68
2023/09/05 10:43:02;;;;;;;0.52;0.50;;;;;;;27.40;64.15;96737.25;5036800;28;20220;-68
2023/09/05 10:45:32;;;;;;;1.10;0.73;;;;;;;27.28;63.90;96739.41;5036532;28;20216;-68
2023/09/05 10:48:02;;;;;;;2.13;1.15;;;;;;;27.68;63.61;96739.47;5036079;28;20535;-68
2023/09/05 10:50:28;;;;;;;1.08;0.70;;;;;;;27.31;62.50;96736.16;5036413;28;20247;-68
2023/09/05 10:53:26;;;;;;;3.17;0.93;;;;;;;27.96;61.28;96728.84;5036716;28;20343;-68
2023/09/05 10:55:54;;;;;;;2.22;0.90;;;;;;;27.59;64.90;96735.66;5036465;28;20212;-68
2023/09/05 10:58:42;;;;;;;1.00;0.70;;;;;;;28.47;60.82;96736.59;5035947;28;21502;-68
2023/09/05 11:01:50;;;;;;;1.17;0.80;;;;;;;28.64;59.48;96734.41;5036597;28;20201;-68
2023/09/05 11:04:29;;;;;;;0.70;0.60;;;;;;;28.35;59.31;96735.31;5037417;28;20206;-68
2023/09/05 11:07:02;;;;;;;2.13;0.80;;;;;;;28.76;58.90;96725.97;5036103;28;20323;-68
2023/09/05 11:09:30;;;;;;;0.90;0.50;;;;;;;27.78;60.19;96721.28;5035793;28;20328;-68
2023/09/05 11:11:56;;;;;;;0.77;0.63;;;;;;;27.68;59.13;96723.19;5036526;28;20287;-68
2023/09/05 11:14:33;;;;;;;1.00;0.60;;;;;;;28.79;58.89;96712.63;5035804;28;20812;-68
2023/09/05 11:17:02;;;;;;;0.88;0.50;;;;;;;28.28;56.76;96715.81;5036009;28;20219;-68
2023/09/05 11:19:37;;;;;;;0.70;0.50;;;;;;;28.59;57.98;96704.56;5035626;28;20208;-68
2023/09/05 11:22:14;;;;;;;0.85;0.50;;;;;;;28.75;56.51;96708.84;5036033;28;20196;-68
2023/09/05 11:24:46;;;;;;;1.67;0.63;;;;;;;28.40;57.34;96710.91;5036334;28;20205;-68
2023/09/05 11:27:13;;;;;;;0.77;0.77;;;;;;;28.29;58.68;96705.78;5035641;28;20283;-68
2023/09/05 11:29:42;;;;;;;1.38;0.50;;;;;;;28.35;57.27;96703.59;5035522;28;20205;-68
2023/09/05 11:32:12;;;;;;;0.85;0.65;;;;;;;29.26;58.54;96697.41;5035587;28;20197;-68